Time;durP1;ratioP1;P1;durP2;ratioP2;P2;SDS_P1;SDS_P2;PMS_P1;PMS_P2;Temp;Humidity;BMP_temperature;BMP_pressure;BME280_temperature;BME280_humidity;BME280_pressure;Samples;Min_cycle;Max_cycle;Signal;HPM_P1;HPM_P2
2021/12/21 00:00:17;;;;;;;58.75;22.63;;;-1.60;79.90;;;;;;5055155;28;20067;-75
2021/12/21 00:02:48;;;;;;;42.72;20.15;;;-1.60;79.60;;;;;;5055272;28;20033;-72
2021/12/21 00:05:18;;;;;;;45.90;19.25;;;-1.70;80.50;;;;;;5055230;28;20131;-75
2021/12/21 00:07:45;;;;;;;48.08;19.52;;;-1.70;80.60;;;;;;5054599;28;20037;-73
2021/12/21 00:10:12;;;;;;;46.22;20.58;;;-1.70;81.00;;;;;;5055088;28;20017;-76
2021/12/21 00:12:46;;;;;;;37.45;19.00;;;-1.90;81.30;;;;;;5054999;28;20029;-76
2021/12/21 00:15:26;;;;;;;38.20;17.50;;;-1.90;81.60;;;;;;5055098;28;20029;-76
2021/12/21 00:25:22;;;;;;;39.10;17.00;;;-1.90;81.20;;;;;;5054885;28;20021;-72
2021/12/21 00:27:51;;;;;;;45.15;18.42;;;-1.80;81.20;;;;;;5054718;28;20138;-72
2021/12/21 00:30:17;;;;;;;34.00;15.65;;;-1.80;82.20;;;;;;5054693;28;20047;-72
2021/12/21 00:32:43;;;;;;;36.55;15.40;;;-1.90;82.00;;;;;;5054534;28;20486;-72
2021/12/21 00:35:09;;;;;;;31.23;14.45;;;-1.80;81.90;;;;;;5054548;28;20033;-73
2021/12/21 00:37:39;;;;;;;38.67;16.85;;;-1.70;81.80;;;;;;5054450;28;20029;-73
2021/12/21 00:40:05;;;;;;;32.28;15.32;;;-1.70;81.40;;;;;;5054492;28;20021;-73
2021/12/21 00:42:30;;;;;;;33.53;15.57;;;-1.70;81.10;;;;;;5054320;28;20100;-73
2021/12/21 00:44:56;;;;;;;33.53;15.48;;;-1.60;80.90;;;;;;5054482;28;20469;-75
2021/12/21 00:47:21;;;;;;;32.33;15.18;;;-1.60;81.00;;;;;;5054361;28;20025;-73
2021/12/21 00:49:57;;;;;;;30.38;15.27;;;-1.60;81.50;;;;;;5054337;28;20075;-73
2021/12/21 00:52:24;;;;;;;35.38;16.17;;;-1.70;81.30;;;;;;5054291;28;20029;-73
2021/12/21 00:54:49;;;;;;;32.20;14.30;;;-1.70;81.20;;;;;;5054197;28;20080;-76
2021/12/21 00:57:15;;;;;;;36.40;15.82;;;-1.70;80.80;;;;;;5054120;28;20021;-76
2021/12/21 00:59:40;;;;;;;26.55;13.23;;;-1.70;80.50;;;;;;5054181;28;20083;-75
2021/12/21 01:02:06;;;;;;;34.78;15.25;;;-1.70;80.80;;;;;;5053845;28;20094;-75
2021/12/21 01:04:38;;;;;;;32.05;14.20;;;-1.70;81.10;;;;;;5053906;28;20025;-75
2021/12/21 01:07:16;;;;;;;31.90;14.88;;;-1.70;81.50;;;;;;5053841;28;20374;-75
2021/12/21 01:12:46;;;;;;;29.85;14.65;;;-1.70;81.20;;;;;;5053891;28;20055;-75
2021/12/21 01:18:35;;;;;;;35.42;15.02;;;-1.60;80.60;;;;;;5053869;28;20083;-74
2021/12/21 01:21:02;;;;;;;27.95;12.65;;;-1.70;80.00;;;;;;5047934;28;20488;-75
2021/12/21 01:31:39;;;;;;;30.52;13.82;;;-1.70;79.30;;;;;;5053493;28;20021;-77
2021/12/21 01:36:40;;;;;;;29.25;13.32;;;-1.70;79.10;;;;;;5033464;28;20025;-75
2021/12/21 01:49:32;;;;;;;41.85;17.05;;;-1.80;78.40;;;;;;5033537;28;20041;-72
2021/12/21 01:49:54;;;;;;;29.98;13.57;;;-2.10;78.70;;;;;;5033375;28;20023;-75
2021/12/21 01:52:23;;;;;;;29.10;13.82;;;-2.10;78.90;;;;;;5033153;28;20109;-75
2021/12/21 01:54:50;;;;;;;28.33;14.40;;;-2.10;79.00;;;;;;5033299;28;20104;-72
2021/12/21 01:57:15;;;;;;;30.73;14.35;;;-2.10;78.80;;;;;;5033240;28;20018;-72
2021/12/21 01:59:42;;;;;;;27.77;14.40;;;-2.10;78.80;;;;;;5033110;28;20029;-73
2021/12/21 02:02:10;;;;;;;27.33;13.55;;;-2.00;78.80;;;;;;5033103;28;20079;-73
2021/12/21 02:04:37;;;;;;;30.13;14.57;;;-2.00;78.80;;;;;;5032909;28;20390;-73
2021/12/21 02:07:04;;;;;;;34.47;14.35;;;-2.00;78.60;;;;;;5033068;28;20064;-73
2021/12/21 02:09:37;;;;;;;29.10;13.27;;;-2.00;78.40;;;;;;5032801;28;20022;-74
2021/12/21 02:12:10;;;;;;;32.40;14.20;;;-2.00;78.30;;;;;;5032998;28;20029;-74
2021/12/21 02:14:37;;;;;;;23.77;12.50;;;-2.00;78.40;;;;;;5032895;28;20033;-75
2021/12/21 02:20:13;;;;;;;24.42;12.38;;;-2.00;77.70;;;;;;5033123;28;20076;-74
2021/12/21 02:22:45;;;;;;;33.30;12.73;;;-2.00;77.10;;;;;;5032744;28;20076;-74
2021/12/21 02:27:59;;;;;;;28.45;13.00;;;-2.20;76.80;;;;;;5032912;28;20045;-72
2021/12/21 02:30:25;;;;;;;26.25;13.00;;;-2.30;76.90;;;;;;5032392;28;20504;-72
2021/12/21 02:32:52;;;;;;;28.85;12.27;;;-2.30;77.00;;;;;;5036665;28;20049;-72
2021/12/21 02:35:18;;;;;;;27.33;11.88;;;-2.30;76.90;;;;;;5052555;28;20021;-73
2021/12/21 02:37:44;;;;;;;29.13;12.50;;;-2.30;76.90;;;;;;5052190;28;20084;-73
2021/12/21 02:40:10;;;;;;;26.45;11.90;;;-2.30;76.90;;;;;;5052502;28;20029;-72
2021/12/21 02:42:36;;;;;;;25.27;10.95;;;-2.30;76.50;;;;;;5052457;28;20044;-72
2021/12/21 02:45:02;;;;;;;30.08;12.90;;;-2.40;76.30;;;;;;5052491;28;20029;-73
2021/12/21 02:47:27;;;;;;;29.55;12.75;;;-2.40;76.30;;;;;;5052368;28;20033;-72
2021/12/21 02:49:53;;;;;;;31.13;13.30;;;-2.40;76.40;;;;;;5052475;28;20086;-72
2021/12/21 02:52:18;;;;;;;32.22;12.68;;;-2.40;76.40;;;;;;5052352;28;20017;-72
2021/12/21 02:54:44;;;;;;;32.75;13.73;;;-2.40;76.40;;;;;;5052222;28;20432;-72
2021/12/21 02:57:09;;;;;;;25.60;11.63;;;-2.40;76.30;;;;;;5052311;28;20025;-71
2021/12/21 02:59:35;;;;;;;26.05;11.57;;;-2.50;76.10;;;;;;5052404;28;20429;-72
2021/12/21 03:02:00;;;;;;;28.48;12.30;;;-2.50;76.00;;;;;;5052094;28;20052;-72
2021/12/21 03:04:26;;;;;;;27.33;12.63;;;-2.50;76.00;;;;;;5052328;28;20040;-72
2021/12/21 03:09:43;;;;;;;24.48;11.85;;;-2.60;75.50;;;;;;5052098;28;20025;-72
2021/12/21 03:14:48;;;;;;;28.95;11.52;;;-2.60;75.50;;;;;;5052398;28;20429;-73
2021/12/21 03:17:14;;;;;;;23.08;12.02;;;-2.70;75.50;;;;;;5052300;28;20544;-73
2021/12/21 03:19:39;;;;;;;27.23;11.82;;;-2.70;75.40;;;;;;5052186;28;20070;-73
2021/12/21 03:22:06;;;;;;;22.73;11.48;;;-2.70;75.30;;;;;;5052141;28;20111;-72
2021/12/21 03:24:33;;;;;;;25.10;12.10;;;-2.70;75.30;;;;;;5052039;28;20073;-72
2021/12/21 03:26:59;;;;;;;24.15;11.40;;;-2.70;75.50;;;;;;5052204;28;20037;-72
2021/12/21 03:29:25;;;;;;;25.95;11.63;;;-2.70;75.50;;;;;;5052128;28;20025;-72
2021/12/21 03:31:51;;;;;;;23.48;11.25;;;-2.70;75.40;;;;;;5052100;28;20036;-72
2021/12/21 03:34:17;;;;;;;26.80;11.60;;;-2.70;75.20;;;;;;5051984;28;20053;-75
2021/12/21 03:36:42;;;;;;;25.42;11.60;;;-2.80;75.00;;;;;;5051768;28;20076;-75
2021/12/21 03:39:16;;;;;;;30.83;12.65;;;-2.80;75.00;;;;;;5052004;28;20025;-74
2021/12/21 03:41:45;;;;;;;22.73;11.32;;;-2.80;75.10;;;;;;5051937;28;20108;-74
2021/12/21 03:44:12;;;;;;;29.10;12.48;;;-2.90;76.00;;;;;;5055079;28;20056;-74
2021/12/21 03:46:46;;;;;;;28.58;11.32;;;-2.90;75.20;;;;;;5055607;28;20029;-73
2021/12/21 03:49:58;;;;;;;26.80;10.48;;;-3.00;75.30;;;;;;5055428;28;20084;-74
2021/12/21 03:52:04;;;;;;;22.60;10.20;;;-3.00;75.20;;;;;;5046921;28;20035;-74
2021/12/21 03:54:30;;;;;;;25.55;10.57;;;-3.00;76.10;;;;;;5055276;28;20386;-72
2021/12/21 03:56:56;;;;;;;24.15;11.25;;;-3.00;75.30;;;;;;5055318;28;20023;-73
2021/12/21 03:59:21;;;;;;;26.58;11.13;;;-2.90;75.20;;;;;;5055115;28;20049;-75
2021/12/21 04:01:48;;;;;;;27.15;11.02;;;-3.00;74.80;;;;;;5037362;28;20029;-74
2021/12/21 04:04:17;;;;;;;29.30;11.40;;;-3.00;74.60;;;;;;5055122;28;20048;-74
2021/12/21 04:06:43;;;;;;;24.63;11.07;;;-3.00;74.40;;;;;;5055252;28;20123;-76
2021/12/21 04:09:09;;;;;;;25.92;11.32;;;-3.00;74.10;;;;;;5055027;28;20485;-74
2021/12/21 04:11:35;;;;;;;29.52;11.40;;;-3.00;74.00;;;;;;5055162;28;20442;-73
2021/12/21 04:14:01;;;;;;;20.60;9.68;;;-3.10;74.20;;;;;;5055107;28;20075;-73
2021/12/21 04:16:27;;;;;;;22.83;10.10;;;-3.10;74.20;;;;;;5055007;28;20171;-73
2021/12/21 04:18:53;;;;;;;28.08;11.63;;;-3.20;74.10;;;;;;5054967;28;20160;-75
2021/12/21 04:21:19;;;;;;;26.73;10.80;;;-3.10;74.40;;;;;;5054942;28;20120;-75
2021/12/21 04:23:45;;;;;;;23.48;11.60;;;-3.10;74.40;;;;;;5054839;28;20033;-75
2021/12/21 04:26:12;;;;;;;23.08;10.18;;;-3.10;74.30;;;;;;5054767;28;20090;-73
2021/12/21 04:28:39;;;;;;;25.70;10.60;;;-3.10;74.20;;;;;;5054708;28;20028;-74
2021/12/21 04:31:05;;;;;;;22.00;9.85;;;-3.10;74.00;;;;;;5054715;28;20370;-74
2021/12/21 04:33:32;;;;;;;27.05;11.10;;;-3.10;73.90;;;;;;5054522;28;20055;-73
2021/12/21 04:35:59;;;;;;;26.17;11.98;;;-3.20;73.90;;;;;;5054694;28;20044;-74
2021/12/21 04:38:29;;;;;;;30.67;12.43;;;-3.20;74.00;;;;;;5054555;28;20044;-73
2021/12/21 04:41:02;;;;;;;26.33;12.18;;;-3.20;74.10;;;;;;5054574;28;20035;-73
2021/12/21 04:43:28;;;;;;;28.00;12.45;;;-3.20;74.10;;;;;;5054425;28;20033;-73
2021/12/21 04:45:53;;;;;;;26.88;11.65;;;-3.20;74.00;;;;;;5054415;28;20416;-73
2021/12/21 04:48:19;;;;;;;27.63;11.68;;;-3.20;73.90;;;;;;5054288;28;20040;-73
2021/12/21 04:50:45;;;;;;;27.23;11.00;;;-3.20;73.90;;;;;;5054360;28;20085;-74
2021/12/21 04:53:11;;;;;;;25.60;11.15;;;-3.20;73.70;;;;;;5054028;28;20526;-73
2021/12/21 04:55:36;;;;;;;25.63;11.10;;;-3.30;74.50;;;;;;5054189;28;20043;-73
2021/12/21 04:58:03;;;;;;;24.65;10.90;;;-3.20;73.90;;;;;;5054206;28;20029;-73
2021/12/21 05:00:29;;;;;;;20.80;11.25;;;-3.20;73.90;;;;;;5054101;28;20036;-72
2021/12/21 05:02:55;;;;;;;25.83;12.10;;;-3.20;73.80;;;;;;5054056;28;20127;-72
2021/12/21 05:05:21;;;;;;;23.73;10.98;;;-3.20;73.80;;;;;;5054121;28;20028;-72
2021/12/21 05:07:52;;;;;;;27.63;11.75;;;-3.20;73.80;;;;;;5054093;28;20056;-72
2021/12/21 05:10:19;;;;;;;25.20;11.05;;;-3.10;73.80;;;;;;5053964;28;20017;-74
2021/12/21 05:12:45;;;;;;;26.58;11.45;;;-3.10;73.90;;;;;;5053951;28;20474;-73
2021/12/21 05:15:10;;;;;;;27.00;11.30;;;-3.10;74.00;;;;;;5053961;28;20359;-72
2021/12/21 05:17:36;;;;;;;27.70;11.52;;;-3.00;74.20;;;;;;5053961;28;20031;-72
2021/12/21 05:20:03;;;;;;;26.42;12.30;;;-3.00;74.40;;;;;;5053868;28;20025;-73
2021/12/21 05:22:28;;;;;;;24.08;11.30;;;-2.90;74.70;;;;;;5053063;28;20029;-72
2021/12/21 05:24:54;;;;;;;34.08;12.77;;;-2.90;74.40;;;;;;5053503;28;20495;-72
2021/12/21 05:27:19;;;;;;;25.60;12.40;;;-2.90;74.40;;;;;;5053610;28;20017;-72
2021/12/21 05:29:45;;;;;;;24.00;11.93;;;-2.80;74.10;;;;;;5053559;28;20035;-72
2021/12/21 05:32:12;;;;;;;34.28;12.98;;;-2.80;74.10;;;;;;5053298;28;20484;-72
2021/12/21 05:34:38;;;;;;;27.50;13.23;;;-2.80;74.10;;;;;;5053235;28;20045;-72
2021/12/21 05:37:06;;;;;;;28.70;12.75;;;-2.70;74.30;;;;;;5053365;28;20079;-72
2021/12/21 05:39:50;;;;;;;32.35;14.07;;;-2.70;74.40;;;;;;5053518;28;20536;-72
2021/12/21 05:42:16;;;;;;;32.70;13.95;;;-2.70;74.70;;;;;;5053319;28;20116;-72
2021/12/21 05:44:42;;;;;;;30.88;13.40;;;-2.70;74.50;;;;;;5053298;28;20083;-72
2021/12/21 05:47:07;;;;;;;34.67;13.30;;;-2.80;74.80;;;;;;5053292;28;20489;-74
2021/12/21 05:49:34;;;;;;;31.90;13.80;;;-2.80;75.00;;;;;;5053350;28;20388;-72
2021/12/21 05:52:00;;;;;;;31.67;13.45;;;-2.80;75.50;;;;;;5053240;28;20108;-74
2021/12/21 05:54:25;;;;;;;33.30;13.27;;;-2.80;76.00;;;;;;5053239;28;20115;-74
2021/12/21 05:56:51;;;;;;;42.67;14.35;;;-2.70;76.70;;;;;;5053139;28;20039;-74
2021/12/21 05:59:16;;;;;;;34.22;13.15;;;-2.80;78.50;;;;;;5052827;28;20032;-73
2021/12/21 06:01:42;;;;;;;35.58;12.38;;;-2.90;79.00;;;;;;5052995;28;20017;-73
2021/12/21 06:04:08;;;;;;;34.28;14.25;;;-2.90;79.00;;;;;;5052836;28;20047;-74
2021/12/21 06:06:34;;;;;;;38.85;15.65;;;-3.00;79.30;;;;;;5052439;28;20389;-74
2021/12/21 06:09:05;;;;;;;34.10;13.98;;;-3.00;79.80;;;;;;5052887;28;20389;-74
2021/12/21 06:11:33;;;;;;;38.47;15.82;;;-3.10;80.40;;;;;;5034819;28;20053;-74
2021/12/21 06:14:14;;;;;;;31.73;13.98;;;-3.00;80.50;;;;;;5052766;28;20017;-72
2021/12/21 06:22:45;;;;;;;26.50;12.88;;;-2.90;80.70;;;;;;5052547;28;20135;-72
2021/12/21 06:27:14;;;;;;;30.20;12.88;;;-2.90;80.10;;;;;;5051862;28;20021;-72
2021/12/21 06:29:41;;;;;;;29.90;12.38;;;-2.90;80.10;;;;;;5051661;28;20029;-73
2021/12/21 06:32:07;;;;;;;35.10;13.02;;;-2.90;80.20;;;;;;5034378;28;20120;-73
2021/12/21 06:34:33;;;;;;;31.55;13.23;;;-2.90;80.30;;;;;;5034141;28;20071;-72
2021/12/21 06:36:59;;;;;;;33.03;12.45;;;-2.90;80.40;;;;;;5052267;28;20427;-72
2021/12/21 06:39:26;;;;;;;33.97;14.45;;;-2.90;80.50;;;;;;5052269;28;20025;-76
2021/12/21 06:41:52;;;;;;;45.08;17.13;;;-2.90;80.40;;;;;;5052324;28;20028;-75
2021/12/21 06:44:18;;;;;;;48.83;17.63;;;-3.10;80.90;;;;;;5052223;28;20041;-76
2021/12/21 06:52:00;;;;;;;46.17;15.95;;;-3.20;81.40;;;;;;5052411;28;20086;-75
2021/12/21 06:54:27;;;;;;;30.95;13.80;;;-3.10;81.60;;;;;;5052050;28;20044;-76
2021/12/21 06:56:52;;;;;;;50.05;15.63;;;-3.20;81.20;;;;;;5052128;28;20017;-74
2021/12/21 06:59:18;;;;;;;35.97;12.95;;;-3.20;80.80;;;;;;5052040;28;20040;-75
2021/12/21 07:01:44;;;;;;;34.40;13.60;;;-3.30;81.40;;;;;;5052315;28;20346;-75
2021/12/21 07:04:11;;;;;;;32.20;13.35;;;-3.30;81.40;;;;;;5052168;28;20033;-75
2021/12/21 07:06:39;;;;;;;29.30;12.70;;;-3.30;81.40;;;;;;5052208;28;20430;-75
2021/12/21 07:11:45;;;;;;;27.92;12.43;;;-3.40;80.80;;;;;;5052060;28;20037;-74
2021/12/21 07:19:41;;;;;;;22.40;11.57;;;-3.50;82.00;;;;;;5056027;28;20047;-75
2021/12/21 07:22:07;;;;;;;25.45;12.80;;;-3.40;81.80;;;;;;5038042;28;20403;-76
2021/12/21 07:24:33;;;;;;;33.30;14.25;;;-3.40;81.70;;;;;;5055601;28;20100;-76
2021/12/21 07:26:58;;;;;;;25.80;12.85;;;-3.40;80.90;;;;;;5055951;28;20106;-76
2021/12/21 07:29:24;;;;;;;23.17;10.80;;;-3.40;80.80;;;;;;5055385;28;20036;-75
2021/12/21 07:31:50;;;;;;;27.65;11.90;;;-3.40;80.40;;;;;;5055525;28;20100;-75
2021/12/21 07:34:16;;;;;;;30.65;12.20;;;-3.40;80.40;;;;;;5055449;28;20517;-78
2021/12/21 07:36:45;;;;;;;31.95;13.32;;;-3.30;80.40;;;;;;5037668;28;20025;-77
2021/12/21 07:39:13;;;;;;;30.92;14.15;;;-3.30;79.80;;;;;;5037655;28;20032;-77
2021/12/21 07:41:40;;;;;;;30.98;14.02;;;-3.30;79.10;;;;;;5037524;28;20031;-77
2021/12/21 07:44:06;;;;;;;31.85;14.63;;;-3.20;78.30;;;;;;5055331;28;20112;-77
2021/12/21 07:46:31;;;;;;;35.22;14.35;;;-3.20;77.50;;;;;;5055355;28;20056;-77
2021/12/21 07:48:57;;;;;;;36.47;15.80;;;-3.20;77.20;;;;;;5055392;28;20036;-76
2021/12/21 07:51:23;;;;;;;35.78;15.85;;;-3.30;77.20;;;;;;5037534;28;20067;-76
2021/12/21 07:53:50;;;;;;;34.42;15.48;;;-3.20;77.40;;;;;;5037375;28;20025;-76
2021/12/21 07:56:16;;;;;;;38.28;15.25;;;-3.20;77.50;;;;;;5055288;28;20017;-77
2021/12/21 07:58:44;;;;;;;35.65;14.88;;;-3.20;77.60;;;;;;5055317;28;20025;-76
2021/12/21 08:01:11;;;;;;;40.55;15.68;;;-3.20;77.70;;;;;;5055123;28;20017;-76
2021/12/21 08:03:36;;;;;;;40.67;15.63;;;-3.20;77.70;;;;;;5054929;28;20040;-76
2021/12/21 08:06:05;;;;;;;43.13;16.80;;;-3.10;77.90;;;;;;5054741;28;20132;-77
2021/12/21 08:08:31;;;;;;;45.65;18.10;;;-3.00;77.80;;;;;;5054999;28;20079;-75
2021/12/21 08:13:47;;;;;;;38.63;15.98;;;-2.80;77.20;;;;;;5055404;28;20091;-81
2021/12/21 08:16:13;;;;;;;43.75;18.20;;;-2.60;76.70;;;;;;5054889;28;20017;-81
2021/12/21 08:18:39;;;;;;;44.47;18.20;;;-2.50;76.50;;;;;;5055023;28;20051;-83
2021/12/21 08:21:05;;;;;;;38.53;15.80;;;-2.50;76.70;;;;;;5037191;28;20079;-79
2021/12/21 08:23:31;;;;;;;37.33;16.10;;;-2.30;76.30;;;;;;5054651;28;20037;-77
2021/12/21 08:25:57;;;;;;;33.13;15.68;;;-2.10;76.40;;;;;;5036888;28;20025;-78
2021/12/21 08:28:23;;;;;;;36.72;15.88;;;-1.80;76.00;;;;;;5054200;28;20027;-76
2021/12/21 08:30:49;;;;;;;38.78;17.30;;;-1.60;74.10;;;;;;5054595;28;20025;-80
2021/12/21 08:33:15;;;;;;;36.92;18.05;;;-1.60;73.20;;;;;;5054489;28;20057;-75
2021/12/21 08:35:41;;;;;;;43.15;19.35;;;-1.40;73.10;;;;;;5036661;28;20033;-76
2021/12/21 08:38:13;;;;;;;48.58;21.33;;;-1.10;77.90;;;;;;5054289;28;20636;-78
2021/12/21 08:40:40;;;;;;;40.72;19.75;;;-0.70;77.20;;;;;;5054378;28;20020;-76
2021/12/21 08:43:07;;;;;;;37.25;17.55;;;-0.30;74.80;;;;;;5036620;28;20346;-80
2021/12/21 08:45:34;;;;;;;35.65;18.40;;;0.20;71.90;;;;;;5054402;28;20029;-78
2021/12/21 08:48:01;;;;;;;42.35;18.45;;;0.30;68.80;;;;;;5054337;28;20061;-73
2021/12/21 08:50:26;;;;;;;36.70;18.30;;;0.40;66.10;;;;;;5054392;28;20036;-73
2021/12/21 08:52:52;;;;;;;30.90;17.00;;;0.30;65.10;;;;;;5054750;28;20021;-72
2021/12/21 08:55:18;;;;;;;29.83;16.52;;;0.30;64.50;;;;;;5036698;28;20029;-74
2021/12/21 08:57:44;;;;;;;29.10;15.95;;;0.10;64.50;;;;;;5036867;28;20536;-73
2021/12/21 09:00:11;;;;;;;35.55;16.85;;;0.00;65.20;;;;;;5054518;28;20021;-73
2021/12/21 09:02:37;;;;;;;32.33;15.48;;;-0.20;66.00;;;;;;5054246;28;20025;-73
2021/12/21 09:05:11;;;;;;;44.22;15.70;;;-0.20;67.40;;;;;;5054053;28;20512;-73
2021/12/21 09:07:39;;;;;;;29.35;14.27;;;0.00;67.70;;;;;;5054011;28;20083;-75
2021/12/21 09:10:06;;;;;;;31.40;15.13;;;0.00;67.30;;;;;;5053989;28;20029;-72
2021/12/21 09:12:33;;;;;;;38.17;18.48;;;0.30;67.70;;;;;;5053838;28;20100;-72
2021/12/21 09:15:00;;;;;;;33.00;15.65;;;0.20;66.80;;;;;;5035940;28;20087;-75
2021/12/21 09:17:25;;;;;;;27.17;14.68;;;0.30;67.20;;;;;;5053662;28;20040;-75
2021/12/21 09:19:51;;;;;;;32.40;16.20;;;0.60;67.20;;;;;;5053769;28;20017;-74
2021/12/21 09:22:18;;;;;;;31.33;14.38;;;1.00;66.00;;;;;;5053522;28;20024;-74
2021/12/21 09:24:43;;;;;;;26.75;13.70;;;1.20;65.50;;;;;;5035437;28;20025;-76
2021/12/21 09:27:09;;;;;;;28.08;14.38;;;1.10;64.60;;;;;;5035322;28;20021;-72
2021/12/21 09:29:34;;;;;;;30.02;13.75;;;1.30;65.30;;;;;;5035404;28;20057;-72
2021/12/21 09:32:00;;;;;;;26.38;13.80;;;1.60;64.80;;;;;;5053437;28;20389;-73
2021/12/21 09:34:26;;;;;;;24.58;13.40;;;2.00;63.70;;;;;;5053257;28;20053;-73
2021/12/21 09:36:53;;;;;;;28.95;13.18;;;2.30;63.00;;;;;;5053224;28;20428;-73
2021/12/21 09:39:19;;;;;;;23.13;12.55;;;2.60;61.90;;;;;;5053283;28;20063;-74
2021/12/21 09:41:45;;;;;;;22.75;11.60;;;2.40;61.30;;;;;;5052861;28;20395;-73
2021/12/21 09:44:11;;;;;;;30.88;12.45;;;2.40;62.60;;;;;;5051492;28;20040;-75
2021/12/21 09:46:37;;;;;;;25.20;11.75;;;2.60;62.30;;;;;;5052654;28;20021;-74
2021/12/21 09:49:03;;;;;;;23.63;11.98;;;2.40;62.80;;;;;;5035492;28;20040;-74
2021/12/21 09:51:29;;;;;;;24.73;12.15;;;2.30;64.00;;;;;;5035018;28;20051;-72
2021/12/21 09:53:56;;;;;;;24.45;11.63;;;2.60;64.20;;;;;;5052997;28;20068;-73
2021/12/21 09:56:22;;;;;;;26.35;11.23;;;3.10;63.40;;;;;;5052948;28;20076;-73
2021/12/21 09:58:48;;;;;;;21.73;11.13;;;3.30;62.60;;;;;;5053111;28;20029;-75
2021/12/21 10:01:15;;;;;;;25.85;11.43;;;3.60;61.20;;;;;;5053063;28;20393;-73
2021/12/21 10:03:40;;;;;;;21.23;11.00;;;3.90;60.40;;;;;;5035018;28;20539;-76
2021/12/21 10:06:10;;;;;;;24.63;12.18;;;4.30;59.80;;;;;;5034959;28;20021;-73
2021/12/21 10:08:38;;;;;;;22.20;11.82;;;4.70;58.70;;;;;;5034425;28;20047;-73
2021/12/21 10:11:06;;;;;;;20.45;11.27;;;5.00;56.50;;;;;;5052474;28;20059;-73
2021/12/21 10:13:35;;;;;;;19.75;10.00;;;5.20;55.50;;;;;;5052382;28;20105;-74
2021/12/21 10:16:04;;;;;;;21.15;10.20;;;5.60;54.70;;;;;;5052229;28;20036;-74
2021/12/21 10:18:41;;;;;;;20.63;9.60;;;5.60;53.00;;;;;;5034649;28;20029;-75
2021/12/21 10:21:10;;;;;;;17.13;9.07;;;5.90;53.20;;;;;;5052286;28;20029;-75
2021/12/21 10:23:38;;;;;;;16.27;8.57;;;6.00;50.30;;;;;;5052282;28;20032;-73
2021/12/21 10:26:10;;;;;;;18.30;10.75;;;6.30;50.80;;;;;;5034404;28;20021;-75
2021/12/21 10:28:40;;;;;;;18.73;10.38;;;6.50;50.20;;;;;;5052173;28;20028;-73
2021/12/21 10:31:16;;;;;;;17.95;9.90;;;6.90;49.40;;;;;;5034501;28;20104;-80
2021/12/21 10:33:45;;;;;;;21.38;10.48;;;7.20;47.90;;;;;;5034745;28;20052;-72
2021/12/21 10:36:12;;;;;;;18.35;9.90;;;7.40;47.60;;;;;;5034450;28;20474;-73
2021/12/21 10:38:52;;;;;;;19.98;10.93;;;7.60;46.60;;;;;;5034341;28;20080;-74
2021/12/21 10:41:28;;;;;;;17.70;10.35;;;7.80;45.40;;;;;;5052252;28;20107;-73
2021/12/21 10:43:57;;;;;;;19.85;11.07;;;8.10;44.60;;;;;;5034248;28;20549;-75
2021/12/21 10:46:27;;;;;;;25.60;12.27;;;8.30;44.40;;;;;;5051629;28;20592;-74
2021/12/21 10:49:03;;;;;;;19.77;10.80;;;8.40;42.90;;;;;;5051640;28;20028;-73
2021/12/21 10:51:28;;;;;;;23.60;11.68;;;8.60;42.30;;;;;;5053040;28;20120;-74
2021/12/21 10:53:54;;;;;;;25.20;10.82;;;8.80;42.50;;;;;;5056251;28;20498;-73
2021/12/21 10:56:19;;;;;;;20.33;10.90;;;9.20;41.20;;;;;;5056612;28;20024;-73
2021/12/21 10:58:46;;;;;;;21.95;11.40;;;9.60;39.80;;;;;;5038345;28;20398;-73
2021/12/21 11:01:20;;;;;;;24.17;12.23;;;10.00;38.80;;;;;;5055963;28;20098;-75
2021/12/21 11:03:51;;;;;;;20.27;10.70;;;10.30;38.20;;;;;;5037883;28;20036;-76
2021/12/21 11:06:33;;;;;;;20.77;11.88;;;10.80;36.90;;;;;;5037502;28;20032;-73
2021/12/21 11:09:04;;;;;;;17.00;8.90;;;11.20;35.90;;;;;;5037911;28;20032;-75
2021/12/21 11:11:47;;;;;;;14.55;9.02;;;11.70;34.60;;;;;;5037766;28;20111;-72
2021/12/21 11:14:17;;;;;;;16.50;8.85;;;12.30;33.80;;;;;;5037749;28;20041;-74
2021/12/21 11:16:50;;;;;;;17.13;9.43;;;12.80;32.40;;;;;;5055461;28;20017;-74
2021/12/21 11:19:23;;;;;;;19.35;10.27;;;13.50;31.40;;;;;;5057361;28;20127;-74
2021/12/21 11:21:49;;;;;;;17.73;9.57;;;13.90;30.40;;;;;;5037453;28;20017;-72
2021/12/21 11:24:17;;;;;;;20.73;10.15;;;14.60;29.30;;;;;;5054854;28;20140;-74
2021/12/21 11:26:47;;;;;;;17.60;9.32;;;15.30;28.00;;;;;;5037411;28;20025;-74
2021/12/21 11:29:17;;;;;;;15.02;9.20;;;15.90;26.60;;;;;;5037329;28;20021;-74
2021/12/21 11:31:47;;;;;;;17.85;9.93;;;16.30;25.80;;;;;;5037528;28;20315;-74
2021/12/21 11:34:16;;;;;;;20.02;9.95;;;16.80;24.30;;;;;;5037038;28;20091;-73
2021/12/21 11:39:32;;;;;;;18.02;10.77;;;16.60;24.20;;;;;;5055631;28;20028;-74
2021/12/21 11:42:04;;;;;;;15.82;9.43;;;16.40;23.80;;;;;;5037474;28;20040;-74
2021/12/21 11:44:39;;;;;;;14.82;9.05;;;16.30;24.00;;;;;;5037077;28;20033;-74
2021/12/21 11:47:11;;;;;;;12.67;8.73;;;16.40;24.20;;;;;;5038201;28;20028;-73
2021/12/21 11:49:50;;;;;;;11.70;7.57;;;17.60;23.30;;;;;;5037162;28;20032;-73
2021/12/21 11:52:22;;;;;;;12.15;7.80;;;18.70;21.40;;;;;;5036996;28;20113;-72
2021/12/21 11:55:05;;;;;;;9.70;6.90;;;19.50;20.00;;;;;;5054931;28;20025;-73
2021/12/21 11:57:36;;;;;;;11.98;6.32;;;19.30;19.00;;;;;;5036597;28;20032;-72
2021/12/21 12:00:24;;;;;;;10.15;5.78;;;18.40;18.70;;;;;;5036815;28;20119;-73
2021/12/21 12:02:52;;;;;;;8.80;6.80;;;20.10;18.70;;;;;;5053761;28;20108;-73
2021/12/21 12:05:22;;;;;;;9.65;6.65;;;21.40;17.50;;;;;;5054309;28;20033;-74
2021/12/21 12:08:11;;;;;;;8.98;6.45;;;22.60;16.40;;;;;;5036615;28;20021;-73
2021/12/21 12:10:49;;;;;;;10.10;7.10;;;23.60;15.00;;;;;;5054521;28;20025;-73
2021/12/21 12:13:27;;;;;;;9.00;6.93;;;24.10;13.90;;;;;;5036373;28;20028;-73
2021/12/21 12:16:00;;;;;;;12.02;7.13;;;24.50;13.40;;;;;;5054599;28;20029;-73
2021/12/21 12:18:32;;;;;;;10.25;6.65;;;24.90;12.40;;;;;;5054601;28;20033;-72
2021/12/21 12:20:57;;;;;;;8.23;6.57;;;25.40;11.70;;;;;;5036628;28;20025;-73
2021/12/21 12:23:23;;;;;;;8.05;5.80;;;26.20;11.20;;;;;;5054506;28;20087;-73
2021/12/21 12:25:58;;;;;;;11.30;6.88;;;26.60;10.60;;;;;;5054018;28;20104;-72
2021/12/21 12:28:33;;;;;;;8.68;6.80;;;27.10;10.30;;;;;;5054110;28;20079;-74
2021/12/21 12:30:59;;;;;;;8.90;6.75;;;27.20;9.70;;;;;;5054074;28;20033;-78
2021/12/21 12:33:36;;;;;;;8.93;7.55;;;27.00;9.60;;;;;;5035448;28;20057;-77
2021/12/21 12:36:03;;;;;;;10.73;7.40;;;27.40;9.40;;;;;;5036107;28;20017;-74
2021/12/21 12:38:29;;;;;;;11.63;8.60;;;27.50;9.00;;;;;;5035858;28;20036;-73
2021/12/21 12:40:58;;;;;;;10.55;8.18;;;27.90;8.70;;;;;;5036030;28;20115;-74
2021/12/21 12:43:27;;;;;;;8.15;6.68;;;27.10;9.00;;;;;;5036026;28;20068;-74
2021/12/21 12:46:04;;;;;;;7.85;7.00;;;27.40;9.20;;;;;;5053934;28;20108;-79
2021/12/21 12:48:32;;;;;;;9.02;7.57;;;27.60;8.90;;;;;;5035643;28;20025;-75
2021/12/21 12:51:01;;;;;;;13.25;8.20;;;28.30;8.80;;;;;;5035875;28;20144;-73
2021/12/21 12:53:54;;;;;;;9.45;8.05;;;28.70;8.40;;;;;;5035576;28;20032;-76
2021/12/21 12:56:20;;;;;;;9.32;7.53;;;27.40;8.80;;;;;;5032263;28;20033;-74
2021/12/21 12:58:54;;;;;;;10.82;7.65;;;26.00;9.20;;;;;;5036018;28;20436;-76
2021/12/21 13:01:26;;;;;;;12.23;7.47;;;26.80;9.50;;;;;;5053813;28;20025;-73
2021/12/21 13:03:54;;;;;;;14.20;8.68;;;27.70;9.60;;;;;;5053977;28;20112;-74
2021/12/21 13:06:23;;;;;;;8.73;7.13;;;28.30;9.40;;;;;;5053814;28;20481;-78
2021/12/21 13:08:49;;;;;;;9.93;6.80;;;28.80;8.80;;;;;;5053834;28;20477;-76
2021/12/21 13:11:26;;;;;;;8.75;6.68;;;29.00;8.90;;;;;;5053770;28;20072;-78
2021/12/21 13:13:55;;;;;;;9.77;7.82;;;29.60;8.40;;;;;;5053925;28;20036;-75
2021/12/21 13:16:23;;;;;;;8.10;7.22;;;29.90;8.00;;;;;;5034858;28;20134;-74
2021/12/21 13:18:56;;;;;;;8.73;7.80;;;29.80;7.90;;;;;;5035846;28;20076;-72
2021/12/21 13:21:25;;;;;;;9.73;7.72;;;29.70;7.80;;;;;;5053624;28;20052;-73
2021/12/21 13:23:58;;;;;;;10.55;7.75;;;29.80;7.80;;;;;;5052924;28;20104;-73
2021/12/21 13:26:38;;;;;;;10.23;8.20;;;29.10;8.00;;;;;;5053681;28;20052;-74
2021/12/21 13:29:06;;;;;;;9.15;7.68;;;28.00;8.60;;;;;;5035079;28;20069;-73
2021/12/21 13:31:32;;;;;;;10.07;7.38;;;27.50;9.10;;;;;;5035571;28;20051;-74
2021/12/21 13:34:00;;;;;;;13.95;8.80;;;27.80;9.30;;;;;;5053291;28;20501;-74
2021/12/21 13:36:47;;;;;;;9.85;8.10;;;28.00;9.60;;;;;;5053356;28;20152;-76
2021/12/21 13:39:26;;;;;;;11.43;9.30;;;28.10;9.60;;;;;;5052978;28;20512;-75
2021/12/21 13:42:07;;;;;;;10.13;8.30;;;27.80;9.30;;;;;;5053404;28;20052;-74
2021/12/21 13:44:34;;;;;;;11.38;9.82;;;27.90;9.50;;;;;;5053260;28;20456;-74
2021/12/21 13:47:03;;;;;;;11.95;9.25;;;27.40;9.60;;;;;;5053144;28;20454;-76
2021/12/21 13:49:28;;;;;;;13.00;9.88;;;26.20;10.20;;;;;;5035111;28;20059;-74